Time;durP1;ratioP1;P1;durP2;ratioP2;P2;SDS_P1;SDS_P2;PMS_P1;PMS_P2;Temp;Humidity;BMP_temperature;BMP_pressure;BME280_temperature;BME280_humidity;BME280_pressure;Samples;Min_cycle;Max_cycle;Signal;HPM_P1;HPM_P2
2023/07/24 00:02:10;;;;;;;2.90;2.00;;;21.00;1.00;;;;;;5066646;28;20420;-75
2023/07/24 00:04:38;;;;;;;4.03;2.50;;;21.00;1.00;;;;;;5072328;28;20183;-76
2023/07/24 00:07:04;;;;;;;2.20;2.00;;;20.90;1.00;;;;;;5071700;28;20451;-75
2023/07/24 00:09:40;;;;;;;3.90;2.00;;;21.00;1.00;;;;;;5057901;28;20475;-75
2023/07/24 00:12:06;;;;;;;3.67;2.43;;;21.00;1.00;;;;;;5065624;28;20497;-75
2023/07/24 00:14:34;;;;;;;3.43;2.17;;;21.00;1.00;;;;;;5072869;28;20525;-75
2023/07/24 00:16:59;;;;;;;4.40;2.47;;;20.90;1.00;;;;;;5068406;28;20412;-75
2023/07/24 00:19:25;;;;;;;3.47;1.80;;;20.90;1.00;;;;;;5072968;28;20929;-75
2023/07/24 00:22:10;;;;;;;3.97;2.70;;;20.80;1.00;;;;;;5074560;28;20188;-84
2023/07/24 00:24:40;;;;;;;1.87;1.77;;;20.80;1.00;;;;;;5070356;28;20588;-84
2023/07/24 00:27:16;;;;;;;5.63;2.30;;;20.80;1.00;;;;;;5067403;28;20470;-84
2023/07/24 00:29:58;;;;;;;3.17;2.33;;;20.70;1.00;;;;;;5074511;28;20855;-83
2023/07/24 00:32:45;;;;;;;3.17;2.33;;;20.70;1.00;;;;;;5076008;28;20415;-84
2023/07/24 00:35:28;;;;;;;7.90;2.20;;;20.60;1.00;;;;;;5062366;28;20411;-84
2023/07/24 00:37:58;;;;;;;2.77;2.40;;;20.60;1.00;;;;;;5076016;28;20531;-83
2023/07/24 00:41:15;;;;;;;3.50;2.30;;;20.60;1.00;;;;;;5065637;28;20430;-84
2023/07/24 00:44:33;;;;;;;4.30;2.27;;;20.60;1.00;;;;;;5075981;28;20468;-84
2023/07/24 00:47:10;;;;;;;4.53;2.20;;;20.50;1.00;;;;;;5068260;28;20438;-84
2023/07/24 00:50:04;;;;;;;2.90;2.30;;;20.50;1.00;;;;;;5065024;28;20510;-85
2023/07/24 00:53:21;;;;;;;3.70;2.33;;;20.50;1.00;;;;;;5073231;28;20422;-84
2023/07/24 00:55:52;;;;;;;2.30;1.97;;;20.40;1.00;;;;;;5064599;28;20432;-84
2023/07/24 00:58:28;;;;;;;6.80;2.40;;;20.40;1.00;;;;;;5072792;28;20418;-83
2023/07/24 01:00:58;;;;;;;5.67;2.43;;;20.40;1.00;;;;;;5073475;28;20512;-84
2023/07/24 01:03:33;;;;;;;3.43;2.10;;;20.40;1.00;;;;;;5075473;28;20454;-84
2023/07/24 01:06:04;;;;;;;6.50;2.70;;;20.40;1.00;;;;;;5072001;28;20431;-84
2023/07/24 01:12:10;;;;;;;4.43;2.70;;;20.40;1.00;;;;;;5065623;28;21056;-84
2023/07/24 01:14:58;;;;;;;6.33;2.80;;;20.30;1.00;;;;;;5074013;28;20808;-84
2023/07/24 01:17:31;;;;;;;4.53;2.20;;;20.30;1.00;;;;;;5066033;28;20426;-84
2023/07/24 01:19:59;;;;;;;4.47;2.60;;;20.30;1.00;;;;;;5065759;28;20419;-84
2023/07/24 01:22:28;;;;;;;3.80;2.50;;;20.20;1.00;;;;;;5072996;28;20996;-84
2023/07/24 01:25:22;;;;;;;6.10;3.20;;;20.20;1.00;;;;;;5073356;28;20506;-84
2023/07/24 01:27:58;;;;;;;4.10;2.60;;;20.10;1.00;;;;;;5068844;28;20528;-84
2023/07/24 01:30:45;;;;;;;3.97;2.40;;;20.10;1.00;;;;;;5078460;28;20429;-84
2023/07/24 01:33:11;;;;;;;2.80;2.40;;;20.00;1.00;;;;;;5063913;28;20464;-84
2023/07/24 01:35:38;;;;;;;3.70;2.30;;;20.00;1.00;;;;;;5072791;28;20438;-75
2023/07/24 01:38:12;;;;;;;5.93;2.67;;;20.00;1.00;;;;;;5065666;28;20627;-75
2023/07/24 01:40:40;;;;;;;4.07;2.80;;;19.90;1.00;;;;;;5064948;28;20424;-75
2023/07/24 01:43:10;;;;;;;11.40;3.60;;;19.90;1.00;;;;;;5062295;28;20843;-75
2023/07/24 01:45:36;;;;;;;9.37;3.37;;;19.90;1.00;;;;;;5067984;28;20985;-75
2023/07/24 01:48:04;;;;;;;13.80;3.37;;;19.90;1.00;;;;;;5056412;28;20458;-75
2023/07/24 01:50:46;;;;;;;3.17;2.43;;;19.90;1.00;;;;;;5061476;28;20533;-75
2023/07/24 01:53:16;;;;;;;9.73;2.83;;;19.80;1.00;;;;;;5066115;28;20409;-84
2023/07/24 01:56:10;;;;;;;5.37;2.73;;;19.80;1.00;;;;;;5060032;28;20437;-84
2023/07/24 01:58:40;;;;;;;7.27;2.60;;;19.70;1.00;;;;;;5073904;28;20448;-84
2023/07/24 02:01:51;;;;;;;4.53;2.80;;;19.60;1.00;;;;;;5063880;28;20422;-83
2023/07/24 02:04:40;;;;;;;8.90;2.93;;;19.60;1.00;;;;;;5067822;28;20513;-84
2023/07/24 02:07:05;;;;;;;6.33;2.80;;;19.50;1.00;;;;;;5065371;28;20441;-84
2023/07/24 02:09:31;;;;;;;9.50;2.90;;;19.60;1.00;;;;;;5061401;28;20520;-85
2023/07/24 02:12:04;;;;;;;4.67;2.87;;;19.60;1.00;;;;;;5073036;28;20245;-84
2023/07/24 02:14:52;;;;;;;5.77;2.83;;;19.60;1.00;;;;;;5059881;28;20175;-84
2023/07/24 02:17:57;;;;;;;3.50;2.67;;;19.60;1.00;;;;;;5071599;28;20790;-84
2023/07/24 02:20:34;;;;;;;5.70;3.27;;;19.60;1.00;;;;;;5061932;28;20404;-83
2023/07/24 02:23:04;;;;;;;5.17;2.50;;;19.60;1.00;;;;;;5061164;28;20422;-84
2023/07/24 02:25:40;;;;;;;7.53;3.30;;;19.50;1.00;;;;;;5073466;28;20891;-84
2023/07/24 02:28:16;;;;;;;5.80;3.10;;;19.50;1.00;;;;;;5060602;28;20468;-84
2023/07/24 02:31:04;;;;;;;4.73;2.83;;;19.40;1.00;;;;;;5067359;28;20822;-84
2023/07/24 02:36:54;;;;;;;5.90;2.83;;;19.40;1.00;;;;;;5066618;28;20411;-75
2023/07/24 02:39:20;;;;;;;7.10;3.10;;;19.20;1.00;;;;;;5073873;28;20421;-75
2023/07/24 02:41:48;;;;;;;3.87;2.53;;;19.10;1.00;;;;;;5072727;28;20419;-75
2023/07/24 02:44:14;;;;;;;5.47;2.60;;;19.00;1.00;;;;;;5060629;28;20421;-75
2023/07/24 02:46:39;;;;;;;7.20;2.70;;;19.00;1.00;;;;;;5062701;28;20414;-75
2023/07/24 02:49:05;;;;;;;3.20;2.73;;;19.00;1.00;;;;;;5070591;28;20206;-75
2023/07/24 02:51:34;;;;;;;4.23;3.10;;;19.00;1.00;;;;;;5072978;28;20650;-76
2023/07/24 02:54:06;;;;;;;3.97;2.73;;;18.90;1.00;;;;;;5054464;28;20939;-75
2023/07/24 02:56:31;;;;;;;6.10;3.03;;;18.90;1.00;;;;;;5066185;28;20404;-75
2023/07/24 02:58:57;;;;;;;3.67;2.70;;;18.80;1.00;;;;;;5067605;28;20421;-75
2023/07/24 03:01:28;;;;;;;4.47;3.03;;;18.70;1.00;;;;;;5065223;28;20260;-75
2023/07/24 03:03:53;;;;;;;3.40;3.10;;;18.70;1.00;;;;;;5053548;28;20182;-75
2023/07/24 03:06:34;;;;;;;4.23;2.60;;;18.50;1.00;;;;;;5066607;28;20425;-77
2023/07/24 03:09:10;;;;;;;3.70;2.70;;;18.50;1.00;;;;;;5061695;28;20205;-84
2023/07/24 03:11:46;;;;;;;4.17;2.97;;;18.40;1.00;;;;;;5058631;28;20453;-84
2023/07/24 03:14:16;;;;;;;4.13;2.83;;;18.30;1.00;;;;;;5070524;28;20922;-84
2023/07/24 03:17:09;;;;;;;6.40;3.13;;;18.20;1.00;;;;;;5073409;28;20498;-84
2023/07/24 03:19:48;;;;;;;5.03;3.03;;;18.20;1.00;;;;;;5065446;28;20429;-84
2023/07/24 03:26:15;;;;;;;3.87;3.00;;;18.00;1.00;;;;;;5061462;28;20481;-87
2023/07/24 03:29:15;;;;;;;6.07;3.10;;;17.90;1.00;;;;;;5057106;28;20519;-88
2023/07/24 03:32:16;;;;;;;5.63;2.90;;;17.90;1.00;;;;;;5060727;28;20385;-87
2023/07/24 03:35:21;;;;;;;7.30;3.03;;;17.70;1.00;;;;;;5069168;28;20436;-88
2023/07/24 03:38:39;;;;;;;6.67;3.37;;;17.60;1.00;;;;;;5061468;28;20435;-85
2023/07/24 03:41:34;;;;;;;5.50;3.40;;;17.50;1.00;;;;;;5074304;28;20423;-85
2023/07/24 03:43:59;;;;;;;5.40;2.73;;;17.50;1.00;;;;;;5060507;28;20427;-85
2023/07/24 03:46:45;;;;;;;4.90;2.97;;;17.50;1.00;;;;;;5065784;28;20422;-85
2023/07/24 03:49:28;;;;;;;5.73;3.23;;;17.40;1.00;;;;;;5062732;28;20203;-85
2023/07/24 03:52:04;;;;;;;8.10;3.50;;;17.40;1.00;;;;;;5076302;28;20974;-87
2023/07/24 03:54:46;;;;;;;5.93;3.97;;;17.40;1.00;;;;;;5077628;28;20467;-88
2023/07/24 03:57:12;;;;;;;7.47;2.93;;;17.40;1.00;;;;;;5078580;28;20471;-88
2023/07/24 04:00:10;;;;;;;6.20;3.50;;;17.30;1.00;;;;;;5077389;28;20408;-88
2023/07/24 04:02:47;;;;;;;4.47;2.80;;;17.40;1.00;;;;;;5066107;28;20939;-87
2023/07/24 04:08:34;;;;;;;5.77;3.40;;;17.50;1.00;;;;;;5061538;28;20478;-88
2023/07/24 04:11:05;;;;;;;8.93;3.50;;;17.60;1.00;;;;;;5077092;28;20426;-87
2023/07/24 04:14:04;;;;;;;5.00;3.33;;;17.60;1.00;;;;;;5062632;28;20176;-88
2023/07/24 04:16:29;;;;;;;7.50;3.57;;;17.70;1.00;;;;;;5062644;28;20410;-87
2023/07/24 04:19:15;;;;;;;9.77;4.37;;;17.70;1.00;;;;;;5076366;28;20443;-88
2023/07/24 04:21:52;;;;;;;9.37;3.60;;;17.80;1.00;;;;;;5076078;28;20189;-88
2023/07/24 04:25:03;;;;;;;5.73;3.00;;;17.90;1.00;;;;;;5067085;28;20952;-85
2023/07/24 04:27:57;;;;;;;6.40;3.10;;;18.00;1.00;;;;;;5072491;28;20447;-85
2023/07/24 04:30:45;;;;;;;5.83;3.43;;;18.00;1.00;;;;;;5055592;28;20418;-85
2023/07/24 04:33:40;;;;;;;9.10;3.50;;;18.10;1.00;;;;;;5068462;28;20428;-85
2023/07/24 04:36:05;;;;;;;5.73;3.70;;;18.20;1.00;;;;;;5077321;28;20479;-85
2023/07/24 04:39:18;;;;;;;4.63;3.07;;;18.20;1.00;;;;;;5086426;28;20454;-85
2023/07/24 04:41:46;;;;;;;7.73;3.70;;;16.40;1.00;;;;;;5062577;28;20411;-85
2023/07/24 04:44:39;;;;;;;7.13;3.37;;;18.40;1.00;;;;;;5061778;28;20453;-86
2023/07/24 04:47:05;;;;;;;3.70;2.80;;;18.50;1.00;;;;;;5068499;28;20443;-85
2023/07/24 04:49:46;;;;;;;6.73;3.77;;;18.60;1.00;;;;;;5075544;28;20463;-85
2023/07/24 04:53:03;;;;;;;4.73;3.70;;;18.70;1.00;;;;;;5071752;28;20179;-86
2023/07/24 04:55:34;;;;;;;9.90;3.27;;;18.80;1.00;;;;;;5078498;28;20445;-86
2023/07/24 04:58:04;;;;;;;8.70;4.27;;;;;;;;;;5074470;28;20951;-87
2023/07/24 05:00:34;;;;;;;9.40;3.60;;;19.10;1.00;;;;;;5066502;28;20432;-85
2023/07/24 05:03:11;;;;;;;6.60;3.57;;;19.20;1.00;;;;;;5070104;28;20459;-85
2023/07/24 05:05:39;;;;;;;6.77;3.70;;;19.30;1.00;;;;;;5073476;28;20435;-86
2023/07/24 05:08:10;;;;;;;5.53;3.83;;;19.40;1.00;;;;;;5063074;28;20997;-88
2023/07/24 05:10:40;;;;;;;6.70;4.07;;;19.40;1.00;;;;;;5072237;28;20446;-88
2023/07/24 05:13:10;;;;;;;9.70;3.73;;;19.50;1.00;;;;;;5083005;28;20444;-88
2023/07/24 05:15:36;;;;;;;8.97;4.47;;;19.60;1.00;;;;;;5065437;28;20407;-88
2023/07/24 05:18:17;;;;;;;6.27;3.80;;;19.60;1.00;;;;;;5083233;28;20410;-88
2023/07/24 05:20:52;;;;;;;7.80;4.20;;;19.60;1.00;;;;;;5079749;28;20183;-88
2023/07/24 05:23:18;;;;;;;4.80;3.57;;;19.70;1.00;;;;;;5069346;28;20404;-86
2023/07/24 05:25:46;;;;;;;7.80;3.93;;;19.70;1.00;;;;;;5062092;28;20423;-87
2023/07/24 05:28:16;;;;;;;5.47;3.83;;;19.80;1.00;;;;;;5064060;28;20464;-85
2023/07/24 05:30:46;;;;;;;6.30;3.50;;;19.80;1.00;;;;;;5063747;28;20433;-86
2023/07/24 05:33:16;;;;;;;8.43;4.40;;;20.00;1.00;;;;;;5060805;28;20466;-86
2023/07/24 05:36:10;;;;;;;5.47;3.20;;;20.10;1.00;;;;;;5073665;28;20962;-86
2023/07/24 05:38:35;;;;;;;5.30;3.73;;;20.20;1.00;;;;;;5065724;28;20464;-88
2023/07/24 05:41:03;;;;;;;7.07;4.13;;;20.50;1.00;;;;;;5060508;28;20957;-87
2023/07/24 05:43:29;;;;;;;5.53;3.80;;;20.50;1.00;;;;;;5070333;28;20172;-87
2023/07/24 05:45:56;;;;;;;6.30;3.90;;;20.60;1.00;;;;;;5069346;28;20422;-87
2023/07/24 05:48:22;;;;;;;6.13;3.90;;;20.70;1.00;;;;;;5069235;28;21002;-87
2023/07/24 05:50:48;;;;;;;9.90;4.17;;;20.90;1.00;;;;;;5064515;28;20526;-87
2023/07/24 05:53:15;;;;;;;7.07;4.33;;;21.00;1.00;;;;;;5064676;28;20507;-87
2023/07/24 05:55:41;;;;;;;9.43;4.87;;;21.10;1.00;;;;;;5064534;28;20678;-88
2023/07/24 05:58:06;;;;;;;7.70;5.07;;;21.20;1.00;;;;;;5068880;28;20427;-87
2023/07/24 06:00:32;;;;;;;8.07;4.80;;;21.40;1.00;;;;;;5062024;28;20524;-87
2023/07/24 06:02:58;;;;;;;8.00;4.77;;;21.40;1.00;;;;;;5070151;28;20582;-88
2023/07/24 06:05:23;;;;;;;10.70;5.43;;;21.50;1.00;;;;;;5067952;28;20183;-88
2023/07/24 06:07:49;;;;;;;8.77;5.27;;;21.60;1.00;;;;;;5065225;28;20223;-88
2023/07/24 06:10:15;;;;;;;14.57;5.40;;;21.70;1.00;;;;;;5063944;28;20182;-86
2023/07/24 06:12:40;;;;;;;14.20;5.50;;;21.80;1.00;;;;;;5055218;28;20179;-87
2023/07/24 06:15:23;;;;;;;20.43;5.93;;;;;;;;;;5060538;28;20267;-87
2023/07/24 06:17:52;;;;;;;8.70;5.60;;;22.00;1.00;;;;;;5064837;28;20186;-87
2023/07/24 06:20:22;;;;;;;9.50;5.50;;;22.00;1.00;;;;;;5071580;28;20430;-87
2023/07/24 06:27:06;;;;;;;9.10;5.50;;;22.00;1.00;;;;;;5059466;28;20409;-88
2023/07/24 06:33:06;;;;;;;8.17;5.37;;;22.10;1.00;;;;;;5074302;28;20409;-88
2023/07/24 06:36:16;;;;;;;8.47;5.10;;;22.10;1.00;;;;;;5058615;28;20425;-88
2023/07/24 06:39:16;;;;;;;10.17;5.30;;;22.20;1.00;;;;;;5069839;28;20423;-86
2023/07/24 06:45:57;;;;;;;14.10;5.50;;;22.60;1.00;;;;;;5073606;28;20449;-87
2023/07/24 06:48:46;;;;;;;14.00;5.90;;;22.70;1.00;;;;;;5064936;28;20508;-88
2023/07/24 06:51:11;;;;;;;10.40;6.30;;;22.90;1.00;;;;;;5073140;28;20458;-87
2023/07/24 06:53:52;;;;;;;13.50;6.37;;;22.90;1.00;;;;;;5057492;28;20411;-87
2023/07/24 06:56:46;;;;;;;10.20;5.77;;;22.90;1.00;;;;;;5072375;28;20581;-87
2023/07/24 07:02:46;;;;;;;9.10;6.07;;;23.00;1.00;;;;;;5063316;28;20772;-88
2023/07/24 07:05:16;;;;;;;12.00;5.90;;;23.10;1.00;;;;;;5072263;28;20835;-87
2023/07/24 07:07:42;;;;;;;8.97;5.40;;;23.20;1.00;;;;;;5072804;28;20442;-88
2023/07/24 07:10:16;;;;;;;9.63;5.40;;;23.40;1.00;;;;;;5073261;28;20507;-87
2023/07/24 07:13:16;;;;;;;9.13;5.20;;;23.50;1.00;;;;;;5070305;28;20177;-88
2023/07/24 07:15:58;;;;;;;11.13;5.37;;;23.40;1.00;;;;;;5071600;28;20433;-87
2023/07/24 07:18:34;;;;;;;8.83;5.27;;;23.50;1.00;;;;;;5053929;28;20469;-87
2023/07/24 07:24:21;;;;;;;21.50;5.00;;;24.00;1.00;;;;;;5070731;28;20402;-88
2023/07/24 07:27:22;;;;;;;6.90;4.70;;;24.20;1.00;;;;;;5066255;28;20518;-87
2023/07/24 07:30:10;;;;;;;6.47;4.80;;;24.20;1.00;;;;;;5072696;28;20287;-88
2023/07/24 07:32:48;;;;;;;10.33;4.43;;;24.20;1.00;;;;;;5073952;28;20448;-88
2023/07/24 07:35:16;;;;;;;7.83;4.20;;;24.80;1.00;;;;;;5067593;28;20448;-89
2023/07/24 07:37:46;;;;;;;7.73;4.73;;;25.00;1.00;;;;;;5072439;28;20839;-88
2023/07/24 07:40:16;;;;;;;4.17;3.77;;;25.30;1.00;;;;;;5073033;28;20412;-87
2023/07/24 07:43:16;;;;;;;12.70;4.03;;;25.40;1.00;;;;;;5071400;28;20414;-88
2023/07/24 07:46:16;;;;;;;5.30;3.80;;;25.30;1.00;;;;;;5073078;28;20480;-89
2023/07/24 07:49:16;;;;;;;4.03;3.10;;;25.20;1.00;;;;;;5072684;28;20492;-88
2023/07/24 07:51:47;;;;;;;7.20;3.70;;;25.30;1.00;;;;;;5073197;28;20461;-89
2023/07/24 07:54:16;;;;;;;4.90;3.17;;;25.30;1.00;;;;;;5073119;28;20418;-88
2023/07/24 07:56:46;;;;;;;3.80;3.23;;;25.40;1.00;;;;;;5059822;28;20474;-89
2023/07/24 07:59:16;;;;;;;7.70;3.20;;;25.90;1.00;;;;;;5055531;28;20423;-89
2023/07/24 08:02:16;;;;;;;6.20;3.40;;;26.00;1.00;;;;;;5067635;28;20432;-89
2023/07/24 08:04:46;;;;;;;5.47;3.60;;;26.10;1.00;;;;;;5052589;28;20408;-89
2023/07/24 08:07:12;;;;;;;6.30;2.90;;;26.20;1.00;;;;;;5062820;28;20934;-89
2023/07/24 08:09:46;;;;;;;4.40;2.97;;;26.00;1.00;;;;;;5072275;28;20459;-89
2023/07/24 08:15:35;;;;;;;4.30;2.90;;;25.80;1.00;;;;;;5054455;28;20403;-88
2023/07/24 08:18:16;;;;;;;4.53;3.30;;;25.80;1.00;;;;;;5072496;28;20817;-89
2023/07/24 08:20:42;;;;;;;7.53;3.50;;;25.80;1.00;;;;;;5059643;28;20424;-89
2023/07/24 08:23:46;;;;;;;4.97;3.43;;;25.90;1.00;;;;;;5055128;28;20470;-88
2023/07/24 08:26:16;;;;;;;4.70;2.83;;;25.50;1.00;;;;;;5064753;28;20196;-88
2023/07/24 08:29:04;;;;;;;6.40;3.30;;;25.60;1.00;;;;;;5075428;28;21014;-89
2023/07/24 08:34:51;;;;;;;5.60;3.30;;;25.70;1.00;;;;;;5064290;28;20397;-89
2023/07/24 08:40:39;;;;;;;4.23;3.00;;;25.40;1.00;;;;;;5063424;28;20774;-88
2023/07/24 08:43:46;;;;;;;5.67;2.80;;;25.20;1.00;;;;;;5071215;28;20461;-88
2023/07/24 08:46:22;;;;;;;5.50;2.97;;;25.30;1.00;;;;;;5068944;28;20532;-88
2023/07/24 08:55:49;;;;;;;7.87;2.90;;;25.90;1.00;;;;;;5073669;28;20406;-89
2023/07/24 08:58:40;;;;;;;6.80;3.30;;;25.90;1.00;;;;;;5056933;28;20420;-89
2023/07/24 09:01:46;;;;;;;10.33;2.77;;;26.30;1.00;;;;;;5085038;28;20415;-89
2023/07/24 09:04:46;;;;;;;5.63;2.67;;;26.30;1.00;;;;;;5074751;28;20424;-89
2023/07/24 09:07:12;;;;;;;4.77;2.90;;;26.50;1.00;;;;;;5074521;28;20445;-89
2023/07/24 09:13:46;;;;;;;4.40;2.67;;;26.20;1.00;;;;;;5075771;28;20398;-88
2023/07/24 09:19:33;;;;;;;3.70;2.70;;;26.00;1.00;;;;;;5071802;28;20491;-89
2023/07/24 09:22:52;;;;;;;8.30;3.03;;;26.20;1.00;;;;;;5074681;28;20890;-90
2023/07/24 09:28:40;;;;;;;3.37;2.90;;;26.60;1.00;;;;;;5073178;28;20478;-89
2023/07/24 09:37:49;;;;;;;7.37;3.17;;;27.50;1.00;;;;;;5059674;28;20413;-88
2023/07/24 09:43:37;;;;;;;5.53;3.40;;;27.60;1.00;;;;;;5075191;28;20690;-88
2023/07/24 09:46:52;;;;;;;6.10;3.70;;;27.90;1.00;;;;;;5063352;28;20424;-88
2023/07/24 09:52:53;;;;;;;11.17;3.67;;;27.70;1.00;;;;;;5064499;28;20441;-88
2023/07/24 09:55:46;;;;;;;5.37;2.80;;;27.70;1.00;;;;;;5074386;28;20424;-89
2023/07/24 10:01:34;;;;;;;3.70;3.00;;;27.70;1.00;;;;;;5067848;28;20457;-88
2023/07/24 10:07:23;;;;;;;4.87;3.23;;;27.90;1.00;;;;;;5073182;28;20204;-89
2023/07/24 10:10:30;;;;;;;7.13;3.40;;;28.00;1.00;;;;;;5069483;28;20459;-89
2023/07/24 10:19:43;;;;;;;28.33;4.23;;;28.50;1.00;;;;;;5066737;28;20470;-89
2023/07/24 10:22:58;;;;;;;7.40;3.80;;;28.30;1.00;;;;;;5064430;28;20431;-89
2023/07/24 10:26:06;;;;;;;7.30;3.93;;;28.20;1.00;;;;;;5073930;28;20429;-89
2023/07/24 10:29:10;;;;;;;10.57;4.37;;;28.10;1.00;;;;;;5070288;28;20453;-90
2023/07/24 10:35:08;;;;;;;16.47;4.17;;;27.80;1.00;;;;;;5073732;28;20758;-90
2023/07/24 10:38:27;;;;;;;17.43;4.40;;;27.80;1.00;;;;;;5069863;28;20927;-89
2023/07/24 10:44:14;;;;;;;5.27;3.80;;;27.50;1.00;;;;;;5063107;28;20471;-88
2023/07/24 10:53:26;;;;;;;6.57;3.40;;;27.80;1.00;;;;;;5073006;28;20436;-89
2023/07/24 10:59:14;;;;;;;9.60;3.47;;;28.10;1.00;;;;;;5070445;28;20567;-87
2023/07/24 11:15:26;;;;;;;4.23;3.30;;;27.30;1.00;;;;;;5069721;28;20409;-89
2023/07/24 11:17:52;;;;;;;9.57;3.50;;;27.50;1.00;;;;;;5073096;28;20900;-89
2023/07/24 11:20:48;;;;;;;8.90;4.53;;;27.60;1.00;;;;;;5072815;28;20413;-90
2023/07/24 11:26:36;;;;;;;5.40;3.80;;;;;;;;;;5065749;28;20398;-86
2023/07/24 11:32:35;;;;;;;10.50;3.93;;;;;;;;;;5064556;28;20431;-86
2023/07/24 11:38:46;;;;;;;6.53;3.70;;;27.90;1.00;;;;;;5063434;28;20759;-89
2023/07/24 11:44:34;;;;;;;23.10;3.70;;;27.80;1.00;;;;;;5070051;28;20960;-91
2023/07/24 11:54:22;;;;;;;5.20;3.40;;;27.70;1.00;;;;;;5071509;28;20537;-87
2023/07/24 11:57:22;;;;;;;22.10;4.00;;;27.70;1.00;;;;;;5063235;28;20429;-86
2023/07/24 12:00:34;;;;;;;8.70;3.60;;;27.60;1.00;;;;;;5060885;28;20460;-87
2023/07/24 12:03:40;;;;;;;7.10;3.53;;;27.60;1.00;;;;;;5065306;28;20427;-86
2023/07/24 12:06:43;;;;;;;7.53;3.60;;;27.70;1.00;;;;;;5069137;28;20424;-86
2023/07/24 12:09:17;;;;;;;5.10;3.37;;;;;;;;;;5071880;28;20479;-86
2023/07/24 12:12:35;;;;;;;3.90;3.20;;;28.00;1.00;;;;;;5067398;28;20417;-90
2023/07/24 12:21:44;;;;;;;4.23;3.30;;;28.10;1.00;;;;;;5076279;28;20384;-85
2023/07/24 12:30:53;;;;;;;5.43;3.20;;;27.90;1.00;;;;;;5076754;28;20486;-89
2023/07/24 12:36:41;;;;;;;4.90;3.70;;;27.70;1.00;;;;;;5062242;28;20194;-86
2023/07/24 12:46:10;;;;;;;5.10;3.13;;;27.80;1.00;;;;;;5069078;28;20435;-89
2023/07/24 12:48:46;;;;;;;3.53;3.23;;;27.80;1.00;;;;;;5074539;28;20456;-89
2023/07/24 12:51:28;;;;;;;3.70;3.33;;;27.80;1.00;;;;;;5069714;28;20511;-89
2023/07/24 12:54:10;;;;;;;6.30;3.70;;;27.80;1.00;;;;;;5066608;28;20443;-89
2023/07/24 12:57:26;;;;;;;6.07;3.20;;;28.10;1.00;;;;;;5075368;28;20498;-89
2023/07/24 13:00:29;;;;;;;5.33;4.00;;;27.90;1.00;;;;;;5073278;28;20448;-89
2023/07/24 13:03:34;;;;;;;6.33;2.80;;;27.80;1.00;;;;;;5070944;28;20429;-90
2023/07/24 13:06:44;;;;;;;6.47;3.07;;;27.50;1.00;;;;;;5066229;28;20427;-91
2023/07/24 13:09:09;;;;;;;4.07;3.30;;;27.40;1.00;;;;;;5059297;28;20465;-91
2023/07/24 13:15:52;;;;;;;4.10;3.27;;;27.40;1.00;;;;;;5061604;28;20205;-92
2023/07/24 13:19:10;;;;;;;16.33;3.70;;;27.60;1.00;;;;;;5074445;28;20468;-91
2023/07/24 13:24:57;;;;;;;4.90;3.10;;;27.00;1.00;;;;;;5074175;28;20429;-86
2023/07/24 13:27:28;;;;;;;10.63;3.93;;;27.00;1.00;;;;;;5073939;28;20449;-86
2023/07/24 13:30:22;;;;;;;8.40;3.17;;;26.90;1.00;;;;;;5072257;28;20289;-91
2023/07/24 13:39:33;;;;;;;5.47;3.67;;;27.00;1.00;;;;;;5067621;28;20507;-89
2023/07/24 13:42:04;;;;;;;6.20;3.90;;;27.30;1.00;;;;;;5065092;28;20501;-87
2023/07/24 13:44:46;;;;;;;13.20;3.80;;;27.30;1.00;;;;;;5070065;28;20447;-88
2023/07/24 13:47:22;;;;;;;10.33;4.40;;;27.10;1.00;;;;;;5084508;28;20417;-88
2023/07/24 13:53:10;;;;;;;8.13;3.80;;;26.70;1.00;;;;;;5072929;28;20401;-89
2023/07/24 13:58:57;;;;;;;7.80;3.80;;;26.70;1.00;;;;;;5074687;28;20222;-89
2023/07/24 14:01:52;;;;;;;7.53;3.67;;;26.30;1.00;;;;;;5073342;28;20947;-88
2023/07/24 14:04:46;;;;;;;6.27;4.00;;;26.60;1.00;;;;;;5072882;28;20554;-89
2023/07/24 14:07:13;;;;;;;6.37;3.50;;;26.70;1.00;;;;;;5073429;28;20452;-88
2023/07/24 14:10:04;;;;;;;4.93;3.37;;;26.70;1.00;;;;;;5073956;28;20452;-89
2023/07/24 14:16:28;;;;;;;7.90;5.03;;;27.00;1.00;;;;;;5060930;28;20409;-87
2023/07/24 14:19:28;;;;;;;6.87;3.90;;;27.20;1.00;;;;;;5071289;28;20435;-86
2023/07/24 14:22:16;;;;;;;33.47;4.70;;;27.20;1.00;;;;;;5076452;28;20454;-87
2023/07/24 14:28:03;;;;;;;4.80;4.03;;;27.40;1.00;;;;;;5059763;28;20547;-88
2023/07/24 14:30:52;;;;;;;6.67;4.03;;;27.20;1.00;;;;;;5067655;28;20524;-88
2023/07/24 14:40:02;;;;;;;8.07;5.00;;;27.10;1.00;;;;;;5071944;28;20973;-86
2023/07/24 14:42:58;;;;;;;8.00;4.73;;;27.30;1.00;;;;;;5072357;28;20419;-86
2023/07/24 14:48:58;;;;;;;8.40;5.00;;;27.30;1.00;;;;;;5059668;28;20503;-88
2023/07/24 14:51:40;;;;;;;5.30;4.10;;;27.70;1.00;;;;;;5071036;28;20933;-87
2023/07/24 14:58:22;;;;;;;7.57;4.50;;;28.20;1.00;;;;;;5067010;28;20930;-91
2023/07/24 15:00:52;;;;;;;4.87;3.20;;;28.20;1.00;;;;;;5058000;28;20543;-89
2023/07/24 15:03:52;;;;;;;6.30;3.70;;;28.20;1.00;;;;;;5069561;28;20551;-85
2023/07/24 15:06:44;;;;;;;4.30;3.40;;;28.00;1.00;;;;;;5060335;28;20440;-87
2023/07/24 15:09:34;;;;;;;4.77;3.10;;;28.10;1.00;;;;;;5066039;28;20474;-89
2023/07/24 15:12:10;;;;;;;3.30;3.00;;;28.20;1.00;;;;;;5071000;28;20440;-89
2023/07/24 15:14:52;;;;;;;5.20;2.70;;;27.80;1.00;;;;;;5072047;28;20836;-88
2023/07/24 15:20:53;;;;;;;4.17;2.40;;;27.50;1.00;;;;;;5067248;28;20910;-91
2023/07/24 15:23:53;;;;;;;4.73;2.60;;;27.00;1.00;;;;;;5068314;28;20947;-89
2023/07/24 15:29:40;;;;;;;3.13;2.30;;;26.20;1.00;;;;;;5074185;28;20985;-88
2023/07/24 15:32:52;;;;;;;2.70;2.33;;;26.00;1.00;;;;;;5073329;28;20417;-88
2023/07/24 15:35:52;;;;;;;6.80;2.50;;;25.80;1.00;;;;;;5071707;28;20184;-88
2023/07/24 15:38:40;;;;;;;24.77;4.47;;;23.40;1.00;;;;;;5062494;28;20421;-78
2023/07/24 15:44:04;;;;;;;4.47;1.70;;;21.60;1.00;;;;;;5066363;28;20412;-83
2023/07/24 15:50:10;;;;;;;1.70;0.80;;;20.70;1.00;;;;;;5062508;28;20525;-81
2023/07/24 15:53:22;;;;;;;3.33;0.90;;;20.60;1.00;;;;;;5076993;28;20418;-80
2023/07/24 15:56:34;;;;;;;1.63;0.97;;;21.00;1.00;;;;;;5066683;28;20396;-81
2023/07/24 15:59:19;;;;;;;3.83;1.00;;;22.20;1.00;;;;;;5075762;28;20419;-77
2023/07/24 16:01:52;;;;;;;3.27;1.00;;;23.90;1.00;;;;;;5076707;28;20431;-87
2023/07/24 16:04:52;;;;;;;0.80;0.80;;;24.90;1.00;;;;;;5086139;28;20431;-85
2023/07/24 16:07:18;;;;;;;1.67;1.00;;;26.90;1.00;;;;;;5071170;28;20448;-86
2023/07/24 16:09:52;;;;;;;2.23;1.00;;;27.70;1.00;;;;;;5071417;28;20822;-84
2023/07/24 16:12:40;;;;;;;6.13;1.00;;;28.60;1.00;;;;;;5075638;28;20231;-86
2023/07/24 16:15:22;;;;;;;1.67;0.90;;;30.10;1.00;;;;;;5075532;28;20423;-93
2023/07/24 16:21:16;;;;;;;1.77;1.10;;;30.80;1.00;;;;;;5059015;28;20413;-95
2023/07/24 16:24:10;;;;;;;2.53;1.10;;;31.90;1.00;;;;;;5069772;28;20445;-89
2023/07/24 16:26:47;;;;;;;1.40;1.10;;;31.70;1.00;;;;;;5075976;28;20420;-89
2023/07/24 16:43:04;;;;;;;124.70;91.80;;;29.40;1.00;;;;;;5069123;28;20480;-82
2023/07/24 16:49:22;;;;;;;1.13;1.03;;;29.90;1.00;;;;;;5062064;28;20984;-80
2023/07/24 16:51:53;;;;;;;2.70;0.90;;;29.30;1.00;;;;;;5072968;28;20519;-82
2023/07/24 16:57:40;;;;;;;1.93;0.93;;;29.70;1.00;;;;;;5064641;28;20426;-83
2023/07/24 17:00:52;;;;;;;2.30;1.00;;;30.30;1.00;;;;;;5060107;28;20437;-93
2023/07/24 17:03:22;;;;;;;8.83;1.40;;;30.10;1.00;;;;;;5072143;28;20272;-96
2023/07/24 17:06:44;;;;;;;1.47;0.97;;;29.80;1.00;;;;;;5086421;28;20424;-90
2023/07/24 17:09:09;;;;;;;1.20;0.87;;;29.90;1.00;;;;;;5068369;28;20473;-89
2023/07/24 17:11:46;;;;;;;4.10;1.23;;;29.20;1.00;;;;;;5064607;28;20444;-90
2023/07/24 17:14:16;;;;;;;1.17;1.07;;;27.50;1.00;;;;;;5056848;28;20583;-90
2023/07/24 17:20:05;;;;;;;2.07;1.00;;;28.60;1.00;;;;;;5070778;28;20504;-81
2023/07/24 17:22:46;;;;;;;1.93;1.20;;;30.40;1.00;;;;;;5072987;28;20422;-81
2023/07/24 17:25:23;;;;;;;1.30;0.80;;;31.60;1.00;;;;;;5075205;28;20868;-83
2023/07/24 17:27:58;;;;;;;1.30;1.13;;;31.10;1.00;;;;;;5083944;28;20429;-82
2023/07/24 17:30:52;;;;;;;30.80;22.87;;;30.60;1.00;;;;;;5070133;28;20436;-90
2023/07/24 17:33:52;;;;;;;589.20;529.37;;;29.80;1.00;;;;;;5071207;28;20431;-90
2023/07/24 17:36:52;;;;;;;156.43;135.83;;;27.60;1.00;;;;;;5074076;28;20970;-90
2023/07/24 17:39:52;;;;;;;1.00;1.00;;;27.30;1.00;;;;;;5084933;28;20428;-89
2023/07/24 17:42:29;;;;;;;1.70;1.60;;;25.30;1.00;;;;;;5061537;28;20429;-90
2023/07/24 17:45:22;;;;;;;1.50;1.40;;;25.30;1.00;;;;;;5054134;28;20793;-89
2023/07/24 17:47:52;;;;;;;4.60;1.80;;;24.40;1.00;;;;;;5063936;28;20424;-87
2023/07/24 17:50:52;;;;;;;1.40;1.30;;;24.40;1.00;;;;;;5073955;28;20441;-87
2023/07/24 17:53:52;;;;;;;1.57;1.43;;;23.80;1.00;;;;;;5075059;28;20415;-87
2023/07/24 17:56:54;;;;;;;6.13;2.47;;;23.20;1.00;;;;;;5070534;28;20784;-95
2023/07/24 17:59:46;;;;;;;1.30;1.20;;;23.10;1.00;;;;;;5076626;28;20844;-95
2023/07/24 18:02:40;;;;;;;1.67;1.40;;;22.80;1.00;;;;;;5074176;28;20524;-96
2023/07/24 18:05:52;;;;;;;6.70;1.53;;;22.50;1.00;;;;;;5074229;28;20421;-96
2023/07/24 18:08:52;;;;;;;4.00;1.77;;;22.20;1.00;;;;;;5073868;28;20533;-90
2023/07/24 18:11:58;;;;;;;2.33;1.47;;;22.10;1.00;;;;;;5083405;28;20435;-91
2023/07/24 18:14:52;;;;;;;2.50;1.70;;;22.00;1.00;;;;;;5090102;28;20432;-91